createdAt,value
2018-08-24T00:00:01.382Z,15.60
2018-08-24T00:01:01.359Z,16.50
2018-08-24T00:02:01.347Z,17.50
2018-08-24T00:03:01.336Z,17.10
2018-08-24T00:04:01.326Z,15.60
2018-08-24T00:05:01.331Z,15.30
2018-08-24T00:06:01.303Z,15.90
2018-08-24T00:07:01.292Z,16.80
2018-08-24T00:08:01.281Z,19.00
2018-08-24T00:09:01.270Z,15.40
2018-08-24T00:10:01.276Z,17.60
2018-08-24T00:11:01.246Z,16.80
2018-08-24T00:12:01.237Z,15.80
2018-08-24T00:13:01.223Z,15.90
2018-08-24T00:14:01.214Z,15.20
2018-08-24T00:15:01.221Z,16.10
2018-08-24T00:16:01.190Z,15.40
2018-08-24T00:17:01.191Z,15.50
2018-08-24T00:18:01.168Z,15.20
2018-08-24T00:19:01.156Z,15.70
2018-08-24T00:20:01.152Z,15.20
2018-08-24T00:21:01.135Z,14.40
2018-08-24T00:22:01.165Z,15.70
2018-08-24T00:23:01.111Z,15.50
2018-08-24T00:24:01.103Z,15.00
2018-08-24T00:25:01.098Z,16.60
2018-08-24T00:26:01.078Z,14.90
2018-08-24T00:27:01.066Z,15.70
2018-08-24T00:28:01.079Z,15.10
2018-08-24T00:29:01.047Z,17.00
2018-08-24T00:30:01.035Z,14.90
2018-08-24T00:31:01.025Z,16.60
2018-08-24T00:32:01.011Z,14.00
2018-08-24T00:33:01.000Z,14.60
2018-08-24T00:34:01.004Z,14.60
2018-08-24T00:35:00.979Z,14.30
2018-08-24T00:36:00.967Z,15.40
2018-08-24T00:37:00.973Z,15.30
2018-08-24T00:38:00.949Z,15.00
2018-08-24T00:39:00.952Z,15.00
2018-08-24T00:40:00.963Z,15.20
2018-08-24T00:41:00.916Z,16.10
2018-08-24T00:42:00.903Z,15.30
2018-08-24T00:43:00.934Z,13.50
2018-08-24T00:44:00.885Z,13.00
2018-08-24T00:45:00.867Z,15.60
2018-08-24T00:46:00.859Z,14.30
2018-08-24T00:47:00.848Z,13.30
2018-08-24T00:48:00.836Z,15.00
2018-08-24T00:49:00.848Z,14.60
2018-08-24T00:50:00.811Z,13.20
2018-08-24T00:51:00.803Z,14.40
2018-08-24T00:52:00.791Z,15.40
2018-08-24T00:53:00.780Z,13.20
2018-08-24T00:54:00.771Z,12.70
2018-08-24T00:55:00.796Z,13.20
2018-08-24T00:56:00.747Z,13.80
2018-08-24T00:57:00.737Z,13.30
2018-08-24T00:58:00.726Z,11.70
2018-08-24T00:59:00.715Z,11.00
2018-08-24T01:00:00.703Z,12.50
2018-08-24T01:01:00.707Z,12.50
2018-08-24T01:02:00.684Z,12.00
2018-08-24T01:03:00.670Z,11.60
2018-08-24T01:04:00.656Z,11.60
2018-08-24T01:05:00.649Z,9.70
2018-08-24T01:06:00.653Z,9.50
2018-08-24T01:07:00.628Z,9.50
2018-08-24T01:08:00.613Z,9.10
2018-08-24T01:09:00.598Z,10.00
2018-08-24T01:10:00.589Z,10.00
2018-08-24T01:11:00.598Z,11.00
2018-08-24T01:12:00.569Z,7.60
2018-08-24T01:13:00.556Z,9.10
2018-08-24T01:14:00.560Z,8.10
2018-08-24T01:15:00.546Z,7.30
2018-08-24T01:16:00.521Z,8.30
2018-08-24T01:17:00.512Z,7.60
2018-08-24T01:18:00.500Z,7.00
2018-08-24T01:19:00.489Z,8.30
2018-08-24T01:20:00.497Z,7.40
2018-08-24T01:21:00.465Z,6.20
2018-08-24T01:22:00.472Z,6.50
2018-08-24T01:23:00.444Z,7.00
2018-08-24T01:24:00.435Z,6.20
2018-08-24T01:25:00.445Z,6.50
2018-08-24T01:26:00.413Z,5.50
2018-08-24T01:27:00.400Z,4.90
2018-08-24T01:28:00.390Z,7.30
2018-08-24T01:29:00.386Z,5.50
2018-08-24T01:30:00.365Z,4.20
2018-08-24T01:31:00.372Z,5.20
2018-08-24T01:32:00.353Z,4.60
2018-08-24T01:33:00.332Z,5.20
2018-08-24T01:34:00.324Z,7.40
2018-08-24T01:35:00.313Z,4.10
2018-08-24T01:36:00.315Z,4.20
2018-08-24T01:37:00.316Z,3.20
2018-08-24T01:38:00.280Z,3.10
2018-08-24T01:39:00.267Z,4.10
2018-08-24T01:40:00.255Z,2.40
2018-08-24T01:41:00.246Z,2.50
2018-08-24T01:42:00.280Z,4.10
2018-08-24T01:43:00.225Z,3.90
2018-08-24T01:44:00.228Z,2.60
2018-08-24T01:45:00.199Z,2.40
2018-08-24T01:46:00.187Z,2.30
2018-08-24T01:47:00.184Z,2.20
2018-08-24T01:48:00.168Z,2.90
2018-08-24T01:49:00.158Z,2.00
2018-08-24T01:50:00.166Z,3.90
2018-08-24T01:51:00.134Z,2.50
2018-08-24T01:52:00.122Z,2.60
2018-08-24T01:53:00.111Z,2.80
2018-08-24T01:54:00.097Z,2.50
2018-08-24T01:55:00.087Z,3.20
2018-08-24T01:56:00.105Z,2.60
2018-08-24T01:57:00.068Z,2.40
2018-08-24T01:58:00.058Z,2.80
2018-08-24T01:59:00.091Z,1.90
2018-08-24T02:00:00.033Z,2.00
2018-08-24T02:01:00.022Z,2.00
2018-08-24T02:02:00.030Z,2.00
2018-08-24T02:02:59.996Z,2.00
2018-08-24T02:03:59.989Z,1.80
2018-08-24T02:04:59.972Z,1.70
2018-08-24T02:05:59.964Z,3.30
2018-08-24T02:06:59.953Z,1.40
2018-08-24T02:07:59.955Z,2.10
2018-08-24T02:08:59.931Z,2.20
2018-08-24T02:09:59.917Z,2.00
2018-08-24T02:10:59.904Z,1.60
2018-08-24T02:11:59.892Z,1.90
2018-08-24T02:12:59.902Z,1.80
2018-08-24T02:13:59.873Z,2.00
2018-08-24T02:14:59.859Z,1.90
2018-08-24T02:15:59.848Z,2.90
2018-08-24T02:16:59.840Z,1.70
2018-08-24T02:17:59.841Z,2.70
2018-08-24T02:18:59.828Z,1.50
2018-08-24T02:19:59.806Z,1.60
2018-08-24T02:20:59.791Z,1.50
2018-08-24T02:21:59.783Z,1.30
2018-08-24T02:22:59.770Z,1.30
2018-08-24T02:23:59.771Z,2.40
2018-08-24T02:24:59.747Z,1.40
2018-08-24T02:25:59.742Z,1.60
2018-08-24T02:26:59.726Z,1.70
2018-08-24T02:27:59.713Z,1.70
2018-08-24T02:28:59.718Z,1.50
2018-08-24T02:29:59.707Z,1.60
2018-08-24T02:30:59.683Z,1.30
2018-08-24T02:31:59.667Z,1.50
2018-08-24T02:32:59.657Z,1.50
2018-08-24T02:33:59.674Z,1.30
2018-08-24T02:34:59.636Z,2.50
2018-08-24T02:35:59.631Z,1.60
2018-08-24T02:36:59.614Z,1.50
2018-08-24T02:37:59.602Z,3.60
2018-08-24T02:38:59.590Z,1.70
2018-08-24T02:39:59.592Z,1.70
2018-08-24T02:40:59.566Z,1.50
2018-08-24T02:41:59.554Z,2.70
2018-08-24T02:42:59.541Z,1.50
2018-08-24T02:43:59.530Z,3.10
2018-08-24T02:44:59.601Z,1.80
2018-08-24T02:45:59.510Z,1.50
2018-08-24T02:46:59.501Z,1.80
2018-08-24T02:47:59.487Z,4.30
2018-08-24T02:48:59.494Z,1.80
2018-08-24T02:49:59.462Z,1.70
2018-08-24T02:50:59.454Z,2.00
2018-08-24T02:51:59.440Z,2.00
2018-08-24T02:52:59.427Z,2.00
2018-08-24T02:53:59.433Z,1.90
2018-08-24T02:54:59.407Z,2.00
2018-08-24T02:55:59.397Z,2.40
2018-08-24T02:56:59.414Z,2.10
2018-08-24T02:57:59.373Z,2.00
2018-08-24T02:58:59.362Z,2.70
2018-08-24T02:59:59.359Z,2.30
2018-08-24T03:00:59.342Z,1.90
2018-08-24T03:01:59.327Z,3.50
2018-08-24T03:02:59.338Z,2.50
2018-08-24T03:03:59.308Z,3.50
2018-08-24T03:04:59.361Z,2.30
2018-08-24T03:05:59.290Z,2.80
2018-08-24T03:06:59.276Z,3.00
2018-08-24T03:07:59.263Z,3.10
2018-08-24T03:08:59.267Z,3.50
2018-08-24T03:09:59.248Z,3.70
2018-08-24T03:10:59.233Z,3.40
2018-08-24T03:11:59.220Z,3.80
2018-08-24T03:12:59.227Z,3.20
2018-08-24T03:13:59.205Z,3.80
2018-08-24T03:14:59.189Z,4.40
2018-08-24T03:15:59.201Z,3.60
2018-08-24T03:16:59.165Z,3.00
2018-08-24T03:17:59.172Z,3.90
2018-08-24T03:18:59.143Z,3.90
2018-08-24T03:19:59.137Z,3.60
2018-08-24T03:20:59.126Z,3.70
2018-08-24T03:21:59.114Z,3.70
2018-08-24T03:22:59.100Z,3.60
2018-08-24T03:23:59.104Z,3.60
2018-08-24T03:24:59.079Z,3.60
2018-08-24T03:25:59.068Z,3.50
2018-08-24T03:26:59.056Z,3.30
2018-08-24T03:27:59.053Z,3.50
2018-08-24T03:28:59.051Z,3.60
2018-08-24T03:29:59.024Z,3.20
2018-08-24T03:30:59.016Z,3.00
2018-08-24T03:31:59.003Z,3.90
2018-08-24T03:32:58.992Z,3.30
2018-08-24T03:33:58.997Z,3.10
2018-08-24T03:34:58.972Z,3.30
2018-08-24T03:35:58.961Z,4.70
2018-08-24T03:36:58.952Z,3.60
2018-08-24T03:37:58.939Z,3.50
2018-08-24T03:38:58.978Z,3.40
2018-08-24T03:39:58.919Z,3.80
2018-08-24T03:40:58.909Z,3.40
2018-08-24T03:41:58.898Z,3.30
2018-08-24T03:42:58.888Z,3.80
2018-08-24T03:43:58.875Z,4.30
2018-08-24T03:44:58.882Z,3.00
2018-08-24T03:45:58.956Z,3.80
2018-08-24T03:46:58.847Z,3.40
2018-08-24T03:47:58.834Z,3.50
2018-08-24T03:48:58.826Z,3.30
2018-08-24T03:49:58.830Z,3.70
2018-08-24T03:50:58.807Z,3.90
2018-08-24T03:51:58.794Z,3.70
2018-08-24T03:52:58.913Z,3.80
2018-08-24T03:53:58.772Z,3.80
2018-08-24T03:54:58.776Z,4.00
2018-08-24T03:55:58.752Z,5.10
2018-08-24T03:56:58.755Z,3.80
2018-08-24T03:57:58.733Z,4.00
2018-08-24T03:58:58.722Z,3.80
2018-08-24T03:59:58.726Z,3.70
2018-08-24T04:00:58.708Z,3.30
2018-08-24T04:01:58.685Z,3.90
2018-08-24T04:02:58.674Z,3.50
2018-08-24T04:03:58.663Z,3.90
2018-08-24T04:04:58.667Z,3.50
2018-08-24T04:05:58.648Z,3.80
2018-08-24T04:06:58.632Z,3.90
2018-08-24T04:07:58.639Z,3.80
2018-08-24T04:08:58.608Z,3.00
2018-08-24T04:09:58.601Z,3.60
2018-08-24T04:10:58.590Z,3.60
2018-08-24T04:11:58.579Z,3.60
2018-08-24T04:12:58.685Z,3.60
2018-08-24T04:13:58.557Z,4.20
2018-08-24T04:14:58.545Z,3.90
2018-08-24T04:15:58.534Z,3.80
2018-08-24T04:16:58.522Z,4.40
2018-08-24T04:17:58.525Z,4.00
2018-08-24T04:18:58.502Z,3.90
2018-08-24T04:19:58.488Z,4.00
2018-08-24T04:20:58.497Z,4.60
2018-08-24T04:21:58.470Z,4.00
2018-08-24T04:22:58.459Z,4.00
2018-08-24T04:23:58.448Z,4.20
2018-08-24T04:24:58.437Z,4.70
2018-08-24T04:25:58.497Z,3.90
2018-08-24T04:26:58.418Z,4.00
2018-08-24T04:27:58.407Z,4.00
2018-08-24T04:28:58.396Z,5.00
2018-08-24T04:29:58.386Z,3.70
2018-08-24T04:30:58.370Z,4.10
2018-08-24T04:31:58.371Z,4.60
2018-08-24T04:32:58.355Z,5.70
2018-08-24T04:33:58.342Z,4.70
2018-08-24T04:34:58.387Z,5.00
2018-08-24T04:35:58.319Z,5.40
2018-08-24T04:36:58.322Z,5.50
2018-08-24T04:37:58.311Z,5.00
2018-08-24T04:38:58.287Z,5.30
2018-08-24T04:39:58.276Z,5.00
2018-08-24T04:40:58.275Z,5.90
2018-08-24T04:41:58.269Z,5.70
2018-08-24T04:42:58.258Z,6.10
2018-08-24T04:43:58.235Z,6.30
2018-08-24T04:44:58.222Z,6.30
2018-08-24T04:45:58.216Z,6.20
2018-08-24T04:46:58.204Z,6.30
2018-08-24T04:47:58.205Z,6.40
2018-08-24T04:48:58.180Z,6.50
2018-08-24T04:49:58.171Z,6.10
2018-08-24T04:50:58.160Z,6.90
2018-08-24T04:51:58.153Z,5.70
2018-08-24T04:52:58.171Z,6.10
2018-08-24T04:53:58.126Z,5.50
2018-08-24T04:54:58.119Z,6.40
2018-08-24T04:55:58.106Z,6.10
2018-08-24T04:56:58.097Z,5.90
2018-08-24T04:57:58.085Z,5.60
2018-08-24T04:58:58.088Z,5.40
2018-08-24T04:59:58.065Z,5.40
2018-08-24T05:00:58.058Z,5.90
2018-08-24T05:01:58.041Z,5.90
2018-08-24T05:02:58.030Z,5.90
2018-08-24T05:03:58.057Z,5.30
2018-08-24T05:04:58.025Z,5.00
2018-08-24T05:05:57.998Z,5.30
2018-08-24T05:06:57.988Z,5.60
2018-08-24T05:07:57.974Z,5.70
2018-08-24T05:08:57.963Z,5.50
2018-08-24T05:09:57.971Z,5.00
2018-08-24T05:10:57.943Z,5.20
2018-08-24T05:11:57.932Z,4.70
2018-08-24T05:12:57.919Z,6.50
2018-08-24T05:13:57.913Z,5.50
2018-08-24T05:14:57.914Z,7.00
2018-08-24T05:15:57.887Z,5.50
2018-08-24T05:16:57.879Z,5.20
2018-08-24T05:17:57.868Z,5.70
2018-08-24T05:18:57.857Z,6.40
2018-08-24T05:19:57.865Z,5.20
2018-08-24T05:20:57.837Z,5.70
2018-08-24T05:21:57.826Z,5.20
2018-08-24T05:22:57.813Z,5.90
2018-08-24T05:23:57.800Z,5.80
2018-08-24T05:24:57.787Z,6.00
2018-08-24T05:25:57.821Z,5.30
2018-08-24T05:26:57.800Z,5.40
2018-08-24T05:27:57.761Z,5.80
2018-08-24T05:28:57.744Z,5.50
2018-08-24T05:29:57.730Z,8.10
2018-08-24T05:30:57.722Z,5.10
2018-08-24T05:31:57.719Z,6.20
2018-08-24T05:32:57.700Z,5.80
2018-08-24T05:33:57.687Z,6.40
2018-08-24T05:34:57.675Z,5.20
2018-08-24T05:35:57.681Z,5.70
2018-08-24T05:36:57.656Z,5.00
2018-08-24T05:37:57.641Z,6.10
2018-08-24T05:38:57.630Z,5.90
2018-08-24T05:39:57.619Z,5.60
2018-08-24T05:40:57.611Z,5.70
2018-08-24T05:41:57.613Z,7.20
2018-08-24T05:42:57.585Z,5.50
2018-08-24T05:43:57.576Z,7.20
2018-08-24T05:44:57.563Z,5.70
2018-08-24T05:45:57.566Z,7.10
2018-08-24T05:46:57.552Z,5.20
2018-08-24T05:47:57.528Z,6.10
2018-08-24T05:48:57.601Z,5.60
2018-08-24T05:49:57.508Z,6.00
2018-08-24T05:50:57.495Z,5.70
2018-08-24T05:51:57.513Z,5.90
2018-08-24T05:52:57.475Z,6.60
2018-08-24T05:53:57.462Z,6.90
2018-08-24T05:54:57.454Z,4.90
2018-08-24T05:55:57.439Z,7.00
2018-08-24T05:56:57.431Z,6.70
2018-08-24T05:57:57.429Z,6.20
2018-08-24T05:58:57.409Z,6.10
2018-08-24T05:59:57.394Z,6.70
2018-08-24T06:00:57.394Z,6.60
2018-08-24T06:01:57.399Z,6.20
2018-08-24T06:02:57.361Z,7.00
2018-08-24T06:03:57.351Z,5.80
2018-08-24T06:04:57.337Z,6.80
2018-08-24T06:05:57.329Z,6.60
2018-08-24T06:06:57.319Z,5.50
2018-08-24T06:07:57.319Z,5.90
2018-08-24T06:08:57.293Z,8.30
2018-08-24T06:09:57.294Z,5.40
2018-08-24T06:10:57.272Z,5.20
2018-08-24T06:11:57.278Z,5.30
2018-08-24T06:12:57.260Z,5.90
2018-08-24T06:13:57.238Z,6.10
2018-08-24T06:14:57.225Z,5.70
2018-08-24T06:15:57.247Z,6.50
2018-08-24T06:16:57.219Z,6.70
2018-08-24T06:17:57.207Z,6.40
2018-08-24T06:18:57.183Z,7.50
2018-08-24T06:19:57.172Z,7.50
2018-08-24T06:20:57.170Z,6.90
2018-08-24T06:21:57.149Z,7.70
2018-08-24T06:22:57.154Z,12.40
2018-08-24T06:23:57.123Z,7.50
2018-08-24T06:24:57.112Z,7.80
2018-08-24T06:25:57.102Z,7.70
2018-08-24T06:26:57.093Z,8.10
2018-08-24T06:27:57.103Z,7.90
2018-08-24T06:28:57.071Z,8.90
2018-08-24T06:29:57.058Z,9.30
2018-08-24T06:30:57.045Z,8.90
2018-08-24T06:31:57.042Z,9.90
2018-08-24T06:32:57.095Z,9.40
2018-08-24T06:33:57.028Z,10.30
2018-08-24T06:34:57.011Z,10.00
2018-08-24T06:35:56.993Z,11.00
2018-08-24T06:36:56.986Z,10.40
2018-08-24T06:37:56.964Z,11.50
2018-08-24T06:38:56.977Z,11.60
2018-08-24T06:39:56.944Z,11.40
2018-08-24T06:40:56.935Z,11.80
2018-08-24T06:41:57.027Z,12.80
2018-08-24T06:42:56.912Z,12.90
2018-08-24T06:43:56.899Z,12.00
2018-08-24T06:44:56.896Z,12.70
2018-08-24T06:45:56.878Z,11.60
2018-08-24T06:46:56.879Z,12.70
2018-08-24T06:47:56.852Z,13.10
2018-08-24T06:48:56.855Z,14.80
2018-08-24T06:49:56.833Z,13.80
2018-08-24T06:50:56.847Z,14.50
2018-08-24T06:51:56.812Z,14.10
2018-08-24T06:52:56.814Z,14.60
2018-08-24T06:53:56.808Z,14.10
2018-08-24T06:54:56.776Z,15.40
2018-08-24T06:55:56.778Z,18.00
2018-08-24T06:56:56.779Z,21.80
2018-08-24T06:57:56.744Z,17.80
2018-08-24T06:58:56.735Z,18.20
2018-08-24T06:59:56.728Z,20.10
2018-08-24T07:00:56.727Z,19.40
2018-08-24T07:01:56.702Z,19.10
2018-08-24T07:02:56.720Z,18.90
2018-08-24T07:03:56.680Z,19.40
2018-08-24T07:04:56.667Z,20.70
2018-08-24T07:05:56.697Z,19.90
2018-08-24T07:06:56.648Z,21.80
2018-08-24T07:07:56.636Z,23.00
2018-08-24T07:08:56.638Z,23.30
2018-08-24T07:09:56.616Z,23.90
2018-08-24T07:10:56.614Z,23.20
2018-08-24T07:11:56.615Z,23.10
2018-08-24T07:12:56.680Z,22.90
2018-08-24T07:13:56.570Z,25.70
2018-08-24T07:14:56.560Z,25.50
2018-08-24T07:15:56.549Z,26.20
2018-08-24T07:16:56.541Z,30.80
2018-08-24T07:17:56.541Z,24.20
2018-08-24T07:18:56.534Z,25.70
2018-08-24T07:19:56.505Z,27.10
2018-08-24T07:20:56.495Z,29.00
2018-08-24T07:21:56.485Z,27.90
2018-08-24T07:22:56.474Z,27.30
2018-08-24T07:23:56.464Z,29.20
2018-08-24T07:24:56.465Z,28.50
2018-08-24T07:25:56.439Z,28.10
2018-08-24T07:26:56.428Z,28.80
2018-08-24T07:27:56.431Z,29.30
2018-08-24T07:28:56.408Z,29.00
2018-08-24T07:29:56.397Z,29.40
2018-08-24T07:30:56.384Z,30.20
2018-08-24T07:31:56.375Z,31.80
2018-08-24T07:32:56.383Z,30.00
2018-08-24T07:33:56.353Z,30.50
2018-08-24T07:34:56.346Z,30.20
2018-08-24T07:35:56.333Z,29.70
2018-08-24T07:36:56.322Z,31.90
2018-08-24T07:37:56.309Z,33.60
2018-08-24T07:38:56.319Z,32.00
2018-08-24T07:39:56.287Z,34.10
2018-08-24T07:40:56.277Z,31.60
2018-08-24T07:41:56.317Z,35.20
2018-08-24T07:42:56.253Z,33.30
2018-08-24T07:43:56.258Z,32.80
2018-08-24T07:44:56.233Z,36.50
2018-08-24T07:45:56.220Z,36.60
2018-08-24T07:46:56.212Z,33.40
2018-08-24T07:47:56.200Z,33.50
2018-08-24T07:48:56.234Z,32.80
2018-08-24T07:49:56.178Z,33.40
2018-08-24T07:50:56.256Z,34.80
2018-08-24T07:51:56.153Z,33.90
2018-08-24T07:52:56.143Z,33.80
2018-08-24T07:53:56.156Z,34.00
2018-08-24T07:54:56.120Z,32.60
2018-08-24T07:55:56.108Z,32.90
2018-08-24T07:56:56.132Z,32.60
2018-08-24T07:57:56.088Z,33.10
2018-08-24T07:58:56.076Z,32.90
2018-08-24T07:59:56.101Z,31.10
2018-08-24T08:00:56.052Z,33.40
2018-08-24T08:01:56.044Z,32.40
2018-08-24T08:02:56.041Z,33.60
2018-08-24T08:03:56.019Z,31.60
2018-08-24T08:04:56.008Z,34.20
2018-08-24T08:05:56.025Z,29.80
2018-08-24T08:06:55.985Z,31.80
2018-08-24T08:07:55.978Z,32.30
2018-08-24T08:08:55.966Z,29.40
2018-08-24T08:09:55.954Z,31.10
2018-08-24T08:10:55.941Z,29.00
2018-08-24T08:11:55.976Z,28.60
2018-08-24T08:12:55.924Z,30.90
2018-08-24T08:13:55.911Z,28.30
2018-08-24T08:14:55.902Z,30.30
2018-08-24T08:15:55.889Z,29.40
2018-08-24T08:16:55.879Z,29.80
2018-08-24T08:17:55.883Z,29.10
2018-08-24T08:18:55.859Z,26.20
2018-08-24T08:19:55.867Z,28.30
2018-08-24T08:20:55.835Z,27.90
2018-08-24T08:21:55.822Z,28.60
2018-08-24T08:22:55.813Z,27.80
2018-08-24T08:23:55.814Z,29.90
2018-08-24T08:24:55.789Z,29.00
2018-08-24T08:25:55.791Z,27.70
2018-08-24T08:26:55.781Z,30.50
2018-08-24T08:27:55.755Z,28.60
2018-08-24T08:28:55.747Z,28.20
2018-08-24T08:29:55.735Z,25.30
2018-08-24T08:30:55.726Z,27.70
2018-08-24T08:31:55.728Z,28.90
2018-08-24T08:32:55.703Z,26.80
2018-08-24T08:33:55.691Z,27.50
2018-08-24T08:34:55.682Z,23.90
2018-08-24T08:35:55.672Z,23.80
2018-08-24T08:36:55.678Z,27.70
2018-08-24T08:37:55.648Z,22.50
2018-08-24T08:38:55.684Z,26.20
2018-08-24T08:39:55.628Z,25.90
2018-08-24T08:40:55.618Z,22.80
2018-08-24T08:41:55.623Z,27.20
2018-08-24T08:42:55.596Z,26.00
2018-08-24T08:43:55.583Z,24.10
2018-08-24T08:44:55.575Z,25.80
2018-08-24T08:45:55.562Z,26.40
2018-08-24T08:46:55.550Z,25.20
2018-08-24T08:47:55.563Z,23.50
2018-08-24T08:48:55.531Z,22.50
2018-08-24T08:49:55.517Z,23.10
2018-08-24T08:50:55.507Z,23.90
2018-08-24T08:51:55.496Z,23.80
2018-08-24T08:52:55.484Z,23.00
2018-08-24T08:53:55.486Z,24.50
2018-08-24T08:54:55.465Z,22.00
2018-08-24T08:55:55.455Z,21.30
2018-08-24T08:56:55.443Z,24.30
2018-08-24T08:57:55.433Z,22.10
2018-08-24T08:58:55.438Z,20.80
2018-08-24T08:59:55.410Z,23.60
2018-08-24T09:00:55.396Z,20.90
2018-08-24T09:01:55.392Z,22.30
2018-08-24T09:02:55.377Z,21.40
2018-08-24T09:03:55.367Z,21.70
2018-08-24T09:04:55.371Z,23.40
2018-08-24T09:05:55.348Z,20.20
2018-08-24T09:06:55.336Z,22.00
2018-08-24T09:07:55.323Z,19.60
2018-08-24T09:08:55.312Z,21.10
2018-08-24T09:09:55.317Z,20.70
2018-08-24T09:10:55.289Z,19.70
2018-08-24T09:11:55.276Z,18.50
2018-08-24T09:12:55.328Z,20.40
2018-08-24T09:13:55.255Z,21.50
2018-08-24T09:14:55.246Z,17.90
2018-08-24T09:15:55.247Z,16.70
2018-08-24T09:16:55.227Z,15.30
2018-08-24T09:17:55.216Z,13.80
2018-08-24T09:18:55.205Z,13.90
2018-08-24T09:19:55.213Z,13.90
2018-08-24T09:20:55.182Z,13.70
2018-08-24T09:21:55.186Z,13.50
2018-08-24T09:22:55.165Z,13.80
2018-08-24T09:23:55.145Z,12.40
2018-08-24T09:24:55.159Z,12.40
2018-08-24T09:25:55.123Z,12.40
2018-08-24T09:26:55.116Z,12.40
2018-08-24T09:27:55.103Z,11.70
2018-08-24T09:28:55.091Z,8.70
2018-08-24T09:29:55.084Z,13.20
2018-08-24T09:30:55.089Z,12.40
2018-08-24T09:31:55.059Z,10.00
2018-08-24T09:32:55.067Z,7.60
2018-08-24T09:33:55.041Z,11.60
2018-08-24T09:34:55.027Z,8.90
2018-08-24T09:35:55.030Z,10.20
2018-08-24T09:36:55.005Z,8.70
2018-08-24T09:37:55.067Z,11.90
2018-08-24T09:38:54.988Z,10.10
2018-08-24T09:39:54.975Z,11.20
2018-08-24T09:40:54.964Z,8.40
2018-08-24T09:41:54.952Z,8.00
2018-08-24T09:42:54.971Z,11.70
2018-08-24T09:43:54.971Z,8.80
2018-08-24T09:44:54.917Z,9.30
2018-08-24T09:45:54.905Z,9.90
2018-08-24T09:46:54.898Z,7.70
2018-08-24T09:47:54.884Z,9.10
2018-08-24T09:48:54.904Z,6.00
2018-08-24T09:49:54.877Z,6.40
2018-08-24T09:50:54.851Z,6.40
2018-08-24T09:51:54.842Z,13.30
2018-08-24T09:52:54.833Z,7.40
2018-08-24T09:53:54.837Z,8.50
2018-08-24T09:54:54.848Z,6.70
2018-08-24T09:55:54.797Z,7.60
2018-08-24T09:56:54.820Z,5.80
2018-08-24T09:57:54.779Z,6.90
2018-08-24T09:58:54.764Z,7.40
2018-08-24T09:59:54.755Z,7.80
2018-08-24T10:00:54.767Z,5.90
2018-08-24T10:01:54.731Z,8.80
2018-08-24T10:02:54.756Z,9.50
2018-08-24T10:03:54.710Z,7.70
2018-08-24T10:04:54.700Z,6.90
2018-08-24T10:05:54.689Z,5.00
2018-08-24T10:06:54.693Z,6.70
2018-08-24T10:07:54.669Z,4.40
2018-08-24T10:08:54.659Z,4.80
2018-08-24T10:09:54.648Z,4.80
2018-08-24T10:10:54.638Z,5.00
2018-08-24T10:11:54.645Z,6.90
2018-08-24T10:12:54.614Z,4.30
2018-08-24T10:13:54.604Z,3.30
2018-08-24T10:14:54.591Z,3.30
2018-08-24T10:15:54.585Z,5.30
2018-08-24T10:16:54.570Z,4.70
2018-08-24T10:17:54.572Z,4.70
2018-08-24T10:18:54.544Z,5.90
2018-08-24T10:19:54.532Z,6.00
2018-08-24T10:20:54.528Z,5.80
2018-08-24T10:21:54.527Z,5.20
2018-08-24T10:22:54.503Z,5.50
2018-08-24T10:23:54.488Z,4.90
2018-08-24T10:24:54.477Z,4.70
2018-08-24T10:25:54.468Z,7.60
2018-08-24T10:26:54.471Z,8.80
2018-08-24T10:27:54.443Z,3.80
2018-08-24T10:28:54.434Z,5.20
2018-08-24T10:29:54.428Z,5.20
2018-08-24T10:30:54.418Z,6.20
2018-08-24T10:31:54.440Z,5.70
2018-08-24T10:32:54.392Z,6.40
2018-08-24T10:33:54.466Z,4.20
2018-08-24T10:34:54.370Z,5.60
2018-08-24T10:35:54.356Z,4.10
2018-08-24T10:36:54.346Z,5.40
2018-08-24T10:37:54.379Z,5.10
2018-08-24T10:38:54.329Z,5.30
2018-08-24T10:39:54.328Z,3.70
2018-08-24T10:40:54.346Z,5.60
2018-08-24T10:41:54.294Z,5.60
2018-08-24T10:42:54.282Z,4.90
2018-08-24T10:43:54.273Z,4.40
2018-08-24T10:44:54.280Z,5.80
2018-08-24T10:45:54.251Z,6.70
2018-08-24T10:46:54.239Z,4.10
2018-08-24T10:47:54.235Z,2.50
2018-08-24T10:48:54.219Z,5.00
2018-08-24T10:49:54.225Z,5.40
2018-08-24T10:50:54.197Z,3.60
2018-08-24T10:51:54.207Z,4.50
2018-08-24T10:52:54.174Z,4.40
2018-08-24T10:53:54.180Z,3.60
2018-08-24T10:54:54.202Z,5.20
2018-08-24T10:55:54.213Z,3.00
2018-08-24T10:56:54.133Z,3.80
2018-08-24T10:57:54.124Z,4.50
2018-08-24T10:58:54.129Z,6.30
2018-08-24T10:59:54.098Z,4.10
2018-08-24T11:00:54.088Z,3.00
2018-08-24T11:01:54.085Z,5.90
2018-08-24T11:02:54.069Z,5.20
2018-08-24T11:03:54.070Z,4.40
2018-08-24T11:04:54.046Z,5.00
2018-08-24T11:05:54.035Z,2.80
2018-08-24T11:06:54.026Z,5.10
2018-08-24T11:07:54.017Z,2.70
2018-08-24T11:08:54.022Z,4.00
2018-08-24T11:09:54.004Z,3.80
2018-08-24T11:10:54.000Z,5.60
2018-08-24T11:11:53.976Z,5.00
2018-08-24T11:12:53.966Z,3.70
2018-08-24T11:13:53.967Z,4.00
2018-08-24T11:14:53.941Z,4.60
2018-08-24T11:15:53.940Z,5.40
2018-08-24T11:16:53.954Z,6.30
2018-08-24T11:17:53.911Z,3.60
2018-08-24T11:18:53.896Z,6.10
2018-08-24T11:19:53.888Z,5.80
2018-08-24T11:20:53.889Z,5.30
2018-08-24T11:21:53.864Z,6.40
2018-08-24T11:22:53.904Z,5.40
2018-08-24T11:23:53.854Z,8.70
2018-08-24T11:24:53.832Z,4.40
2018-08-24T11:25:53.823Z,6.30
2018-08-24T11:26:53.882Z,3.80
2018-08-24T11:27:53.810Z,3.60
2018-08-24T11:28:53.793Z,5.40
2018-08-24T11:29:53.782Z,4.30
2018-08-24T11:30:53.775Z,4.20
2018-08-24T11:31:53.758Z,5.70
2018-08-24T11:32:53.789Z,4.50
2018-08-24T11:33:53.743Z,5.10
2018-08-24T11:34:53.727Z,5.00
2018-08-24T11:35:53.732Z,4.00
2018-08-24T11:36:53.706Z,3.30
2018-08-24T11:37:53.698Z,4.40
2018-08-24T11:38:53.699Z,4.30
2018-08-24T11:39:53.680Z,4.10
2018-08-24T11:40:53.668Z,4.90
2018-08-24T11:41:53.687Z,3.70
2018-08-24T11:42:53.642Z,3.90
2018-08-24T11:43:53.652Z,4.10
2018-08-24T11:44:53.623Z,5.50
2018-08-24T11:45:53.628Z,3.30
2018-08-24T11:46:53.605Z,4.00
2018-08-24T11:47:53.640Z,4.00
2018-08-24T11:48:53.579Z,4.10
2018-08-24T11:49:53.569Z,5.20
2018-08-24T11:50:53.573Z,7.00
2018-08-24T11:51:53.550Z,7.10
2018-08-24T11:52:53.537Z,5.10
2018-08-24T11:53:53.566Z,5.60
2018-08-24T11:54:53.520Z,3.40
2018-08-24T11:55:53.508Z,6.30
2018-08-24T11:56:53.495Z,4.10
2018-08-24T11:57:53.486Z,4.90
2018-08-24T11:58:53.476Z,4.80
2018-08-24T11:59:53.525Z,4.90
2018-08-24T12:00:53.450Z,5.50
2018-08-24T12:01:53.446Z,6.00
2018-08-24T12:02:53.434Z,2.80
2018-08-24T12:03:53.423Z,4.00
2018-08-24T12:04:53.412Z,3.60
2018-08-24T12:05:53.413Z,5.20
2018-08-24T12:06:53.394Z,5.30
2018-08-24T12:07:53.524Z,5.40
2018-08-24T12:08:53.371Z,5.10
2018-08-24T12:09:53.360Z,2.60
2018-08-24T12:10:53.353Z,4.20
2018-08-24T12:11:53.336Z,3.40
2018-08-24T12:12:53.325Z,6.20
2018-08-24T12:13:53.365Z,3.00
2018-08-24T12:14:53.306Z,3.50
2018-08-24T12:15:53.295Z,3.40
2018-08-24T12:16:53.286Z,5.20
2018-08-24T12:17:53.276Z,4.00
2018-08-24T12:18:53.280Z,3.60
2018-08-24T12:19:53.263Z,1.80
2018-08-24T12:20:53.259Z,2.70
2018-08-24T12:21:53.234Z,4.90
2018-08-24T12:22:53.220Z,5.30
2018-08-24T12:23:53.208Z,6.30
2018-08-24T12:24:53.217Z,2.60
2018-08-24T12:25:53.190Z,5.30
2018-08-24T12:26:53.177Z,5.10
2018-08-24T12:27:53.170Z,5.80
2018-08-24T12:28:53.158Z,5.10
2018-08-24T12:29:53.146Z,5.80
2018-08-24T12:30:53.200Z,3.40
2018-08-24T12:31:53.130Z,3.70
2018-08-24T12:32:53.115Z,4.90
2018-08-24T12:33:53.105Z,2.50
2018-08-24T12:34:53.171Z,3.00
2018-08-24T12:35:53.099Z,3.70
2018-08-24T12:36:53.072Z,3.30
2018-08-24T12:37:53.067Z,3.70
2018-08-24T12:38:53.048Z,4.20
2018-08-24T12:39:53.040Z,3.80
2018-08-24T12:40:53.028Z,5.50
2018-08-24T12:41:53.061Z,3.00
2018-08-24T12:42:53.006Z,4.20
2018-08-24T12:43:52.997Z,6.10
2018-08-24T12:44:52.985Z,6.40
2018-08-24T12:45:52.971Z,3.70
2018-08-24T12:46:52.970Z,5.90
2018-08-24T12:47:52.968Z,3.90
2018-08-24T12:48:52.944Z,5.30
2018-08-24T12:49:52.982Z,8.80
2018-08-24T12:50:52.920Z,4.30
2018-08-24T12:51:52.910Z,7.60
2018-08-24T12:52:52.914Z,4.10
2018-08-24T12:53:52.888Z,3.70
2018-08-24T12:54:52.881Z,3.50
2018-08-24T12:55:52.866Z,1.50
2018-08-24T12:56:52.861Z,3.20
2018-08-24T12:57:52.844Z,3.30
2018-08-24T12:58:52.848Z,5.10
2018-08-24T12:59:52.843Z,2.10
2018-08-24T13:00:52.814Z,4.00
2018-08-24T13:01:52.806Z,3.50
2018-08-24T13:02:52.793Z,2.00
2018-08-24T13:03:52.798Z,5.00
2018-08-24T13:04:52.771Z,2.80
2018-08-24T13:05:52.761Z,2.20
2018-08-24T13:06:52.750Z,2.40
2018-08-24T13:07:52.736Z,4.10
2018-08-24T13:08:52.742Z,5.40
2018-08-24T13:09:52.717Z,4.70